Map

Track Data

SID SEASON NUMBER BASIN SUBBASIN NAME ISO_TIME NATURE LAT LON WMO_WIND WMO_PRES WMO_AGENCY TRACK_TYPE DIST2LAND LANDFALL IFLAG USA_AGENCY USA_ATCF_ID USA_LAT USA_LON USA_RECORD USA_STATUS USA_WIND USA_PRES USA_SSHS USA_R34_NE USA_R34_SE USA_R34_SW USA_R34_NW USA_R50_NE USA_R50_SE USA_R50_SW USA_R50_NW USA_R64_NE USA_R64_SE USA_R64_SW USA_R64_NW USA_POCI USA_ROCI USA_RMW USA_EYE TOKYO_LAT TOKYO_LON TOKYO_GRADE TOKYO_WIND TOKYO_PRES TOKYO_R50_DIR TOKYO_R50_LONG TOKYO_R50_SHORT TOKYO_R30_DIR TOKYO_R30_LONG TOKYO_R30_SHORT TOKYO_LAND CMA_LAT CMA_LON CMA_CAT CMA_WIND CMA_PRES HKO_LAT HKO_LON HKO_CAT HKO_WIND HKO_PRES NEWDELHI_LAT NEWDELHI_LON NEWDELHI_GRADE NEWDELHI_WIND NEWDELHI_PRES NEWDELHI_CI NEWDELHI_DP NEWDELHI_POCI REUNION_LAT REUNION_LON REUNION_TYPE REUNION_WIND REUNION_PRES REUNION_TNUM REUNION_CI REUNION_RMW REUNION_R34_NE REUNION_R34_SE REUNION_R34_SW REUNION_R34_NW REUNION_R50_NE REUNION_R50_SE REUNION_R50_SW REUNION_R50_NW REUNION_R64_NE REUNION_R64_SE REUNION_R64_SW REUNION_R64_NW BOM_LAT BOM_LON BOM_TYPE BOM_WIND BOM_PRES BOM_TNUM BOM_CI BOM_RMW BOM_R34_NE BOM_R34_SE BOM_R34_SW BOM_R34_NW BOM_R50_NE BOM_R50_SE BOM_R50_SW BOM_R50_NW BOM_R64_NE BOM_R64_SE BOM_R64_SW BOM_R64_NW BOM_ROCI BOM_POCI BOM_EYE BOM_POS_METHOD BOM_PRES_METHOD NADI_LAT NADI_LON NADI_CAT NADI_WIND NADI_PRES WELLINGTON_LAT WELLINGTON_LON WELLINGTON_WIND WELLINGTON_PRES DS824_LAT DS824_LON DS824_STAGE DS824_WIND DS824_PRES TD9636_LAT TD9636_LON TD9636_STAGE TD9636_WIND TD9636_PRES TD9635_LAT TD9635_LON TD9635_WIND TD9635_PRES TD9635_ROCI NEUMANN_LAT NEUMANN_LON NEUMANN_CLASS NEUMANN_WIND NEUMANN_PRES MLC_LAT MLC_LON MLC_CLASS MLC_WIND MLC_PRES USA_GUST BOM_GUST BOM_GUST_PER REUNION_GUST REUNION_GUST_PER USA_SEAHGT USA_SEARAD_NE USA_SEARAD_SE USA_SEARAD_SW USA_SEARAD_NW STORM_SPEED STORM_DIR
1969091S15160 1969 22 SP MM NOT_NAMED 1969-03-31 23:00:00 NR -14.7000 160.200 main 469 466 __________O___ -1 -14.7000 160.200 1 33 9 126
1969091S15160 1969 22 SP MM NOT_NAMED 1969-04-01 00:00:00 TS -14.7829 160.321 main 476 472 O________OP___ jtwc_sh SH321969 -14.8000 160.300 30 -1 -14.8000 160.300 TC 30 -14.7658 160.343 1 32 9 118
1969091S15160 1969 22 SP MM NOT_NAMED 1969-04-01 03:00:00 TS -14.9843 160.754 main 482 480 P________PP___ SH321969 -15.0001 160.740 30 -1 -15.0001 160.740 TC 30 -14.9631 160.774 1 32 10 115
1969091S15160 1969 22 SP MM NOT_NAMED 1969-04-01 06:00:00 TS -15.2134 161.279 main 495 494 O________OP_O_ jtwc_sh SH321969 -15.2000 161.200 30 -1 -15.2000 161.200 TC 30 -15.1618 161.216 1 31 -15.5000 162.000 TC 30 11 114
1969091S15160 1969 22 SP MM NOT_NAMED 1969-04-01 09:00:00 TS -15.4309 161.803 main 509 478 P________PP_P_ SH321969 -15.3999 161.693 30 -1 -15.3999 161.693 TC 30 -15.3633 161.678 1 30 -15.6902 162.495 TC 32 11 113
1969091S15160 1969 22 SP MM NOT_NAMED 1969-04-01 11:00:00 TS -15.5831 162.182 main 470 451 P________PO_P_ SH321969 -15.5333 162.031 30 -1 -15.5333 162.031 TC 30 -15.5000 162.000 1 30 -15.8266 162.830 TC 34 12 113
1969091S15160 1969 22 SP MM NOT_NAMED 1969-04-01 12:00:00 TS -15.6673 162.392 main 451 400 O________OP_O_ jtwc_sh SH321969 -15.6000 162.200 30 -1 -15.6000 162.200 TC 30 -15.5692 162.166 1 30 -15.9000 163.000 TC 35 11 113
1969091S15160 1969 22 SP MM NOT_NAMED 1969-04-01 15:00:00 TS -15.8772 162.898 main 400 351 P________PP_P_ SH321969 -15.7924 162.700 32 -1 -15.7924 162.700 TC 32 -15.7814 162.678 1 33 -16.1425 163.515 TC 37 11 114
1969091S15160 1969 22 SP MM NOT_NAMED 1969-04-01 18:00:00 TS -16.1007 163.398 main 351 305 O________OP_O_ jtwc_sh SH321969 -16.0000 163.200 35 0 -16.0000 163.200 TC 35 -16.0027 163.193 1 35 -16.4000 164.000 TC 40 11 116
1969091S15160 1969 22 SP MM NOT_NAMED 1969-04-01 21:00:00 TS -16.3409 163.889 main 305 284 P________PP_P_ SH321969 -16.2425 163.722 37 0 -16.2425 163.722 TC 37 -16.2361 163.690 1 38 -16.6424 164.423 TC 40 10 118
1969091S15160 1969 22 SP MM NOT_NAMED 1969-04-01 23:00:00 TS -16.5098 164.195 main 284 280 P________PO_P_ SH321969 -16.4141 164.050 39 0 -16.4141 164.050 TC 39 -16.4000 164.000 2 40 -16.8109 164.678 TC 40 10 121
1969091S15160 1969 22 SP MM NOT_NAMED 1969-04-02 00:00:00 TS -16.5959 164.337 main 280 255 O________OP_O_ jtwc_sh SH321969 -16.5000 164.200 40 0 -16.5000 164.200 TC 40 -16.4836 164.148 2 40 -16.9000 164.800 TC 40 9 125
1969091S15160 1969 22 SP MM NOT_NAMED 1969-04-02 03:00:00 TS -16.8574 164.719 main 261 247 P________PP_P_ SH321969 -16.7423 164.573 40 0 -16.7423 164.573 TC 40 -16.7450 164.567 2 40 -17.1999 165.165 TC 40 9 128
1969091S15160 1969 22 SP MM NOT_NAMED 1969-04-02 06:00:00 TS -17.1300 165.062 main 239 232 O________OP_O_ jtwc_sh SH321969 -17.0000 164.900 40 0 -17.0000 164.900 TC 40 -17.0201 164.948 2 40 -17.5000 165.500 TC 40 9 130
1969091S15160 1969 22 SP MM NOT_NAMED 1969-04-02 09:00:00 TS -17.4083 165.407 main 232 221 P________PP_P_ SH321969 -17.2925 165.258 40 0 -17.2925 165.258 TC 40 -17.3056 165.292 2 40 -17.7425 165.823 TC 35 9 131
1969091S15160 1969 22 SP MM NOT_NAMED 1969-04-02 11:00:00 TS -17.6006 165.623 main 227 218 P________PO_P_ SH321969 -17.4974 165.489 40 0 -17.4974 165.489 TC 40 -17.5000 165.500 2 40 -17.9079 166.014 TC 31 8 134
1969091S15160 1969 22 SP MM NOT_NAMED 1969-04-02 12:00:00 TS -17.7001 165.728 main 225 215 O________OP_O_ jtwc_sh SH321969 -17.6000 165.600 40 0 -17.6000 165.600 TC 40 -17.6003 165.611 2 38 -18.0000 166.100 TC 30 9 137
1969091S15160 1969 22 SP MM NOT_NAMED 1969-04-02 15:00:00 TS -18.0164 166.030 main 223 223 P________PP_P_ SH321969 -17.9000 165.930 35 0 -17.9000 165.930 TC 35 -17.9082 165.922 2 33 -18.3575 166.337 TC 25 8 141
1969091S15160 1969 22 SP MM NOT_NAMED 1969-04-02 18:00:00 TS -18.3293 166.272 main 228 228 O________OP_O_ jtwc_sh SH321969 -18.2000 166.200 30 -1 -18.2000 166.200 TC 30 -18.2172 166.188 2 28 -18.7000 166.500 TC 20 7 147
1969091S15160 1969 22 SP MM NOT_NAMED 1969-04-02 21:00:00 TS -18.6148 166.438 main 252 247 P________PP_P_ SH321969 -18.5149 166.388 25 -1 -18.5149 166.388 TC 25 -18.5145 166.398 2 23 -18.9150 166.580 TC 20 6 154
1969091S15160 1969 22 SP MM NOT_NAMED 1969-04-02 23:00:00 TS -18.7896 166.509 main 261 252 P________PO_P_ SH321969 -18.7114 166.469 21 -1 -18.7114 166.469 TC 21 -18.7000 166.500 1 20 -19.0355 166.597 TC 20 5 161
1969091S15160 1969 22 SP MM NOT_NAMED 1969-04-03 00:00:00 TS -18.8709 166.535 main 252 239 O________OP_O_ jtwc_sh SH321969 -18.8000 166.500 20 -1 -18.8000 166.500 TC 20 -18.7837 166.540 1 20 -19.1000 166.600 TC 20 5 166
1969091S15160 1969 22 SP MM NOT_NAMED 1969-04-03 03:00:00 TS -19.0939 166.591 main 239 222 P________PP_P_ SH321969 -19.0075 166.573 22 -1 -19.0075 166.573 TC 22 -19.0180 166.610 1 21 -19.3425 166.608 TC 22 4 171
1969091S15160 1969 22 SP MM NOT_NAMED 1969-04-03 06:00:00 TS -19.3092 166.607 main 222 206 O________OP_O_ jtwc_sh SH321969 -19.2000 166.600 25 -1 -19.2000 166.600 TC 25 -19.2367 166.626 1 22 -19.6000 166.600 TC 25 5 0
1969091S15160 1969 22 SP MM NOT_NAMED 1969-04-03 09:00:00 TS -19.5468 166.607 main 206 190 P________PP_P_ SH321969 -19.4425 166.608 25 -1 -19.4425 166.608 TC 25 -19.4521 166.613 1 24 -19.8500 166.600 TC 20 5 0
1969091S15160 1969 22 SP MM NOT_NAMED 1969-04-03 11:00:00 TS -19.7112 166.601 main 190 183 P________PO_P_ SH321969 -19.6140 166.603 25 -1 -19.6140 166.603 TC 25 -19.6000 166.600 1 25 -20.0167 166.600 TC 16 5 0
1969091S15160 1969 22 SP MM NOT_NAMED 1969-04-03 12:00:00 TS -19.7851 166.598 main 183 167 O________OP_O_ jtwc_sh SH321969 -19.7000 166.600 25 -1 -19.7000 166.600 TC 25 -19.6765 166.595 1 23 -20.1000 166.600 TC 15 5 182
1969091S15160 1969 22 SP MM NOT_NAMED 1969-04-03 15:00:00 TS -20.0175 166.594 main 167 152 P________PP_P_ SH321969 -19.9525 166.597 22 -1 -19.9525 166.597 TC 22 -19.9161 166.587 1 20 -20.3500 166.600 TC 12 5 0
1969091S15160 1969 22 SP MM NOT_NAMED 1969-04-03 18:00:00 TS -20.2503 166.594 main 143 133 O________OP_O_ jtwc_sh SH321969 -20.2000 166.600 20 -1 -20.2000 166.600 TC 20 -20.1674 166.588 1 16 -20.6000 166.600 TC 10 4 176
1969091S15160 1969 22 SP MM NOT_NAMED 1969-04-03 21:00:00 NR -20.4258 166.594 main 133 113 __________P___ SH321969 -1 TC -20.4258 166.594 1 12 TC 4 0
1969091S15160 1969 22 SP MM NOT_NAMED 1969-04-03 23:00:00 NR -20.6000 166.600 main 113 __________O___ SH321969 -1 TC -20.6000 166.600 1 10 TC 5 0

Digital Typhoon Data and Search

About IBTrACS Database

This database is a web-friendly format of International Best Track Archive for Climate Stewardship (IBTrACS), a global best track data archive curated by NOAA dating back to 1842.

Updated: 2021-11-26